Airport View

Enter AWOS ICAO identifier for current METAR.

ex. KFNL

KUTA 192330Z AUTO 16006KT 10SM CLR 22/18 A3004 RMK AO2 TSNO

19 Oct 2020 23:30

Frequency: 118.075

Phone: 662-363-1652

Other Area AWOS: KCKM - KAWM - KMEM - KPMU

TAF AMD KMEM 192119Z 1921/2024 19012KT P6SM VCSH SCT035 FM192200 18006KT P6SM SCT040 BKN070 FM200300 19003KT P6SM OVC040 FM201600 12007KT P6SM SCT025 SCT200